createdAt,value
2023-12-12T00:00:57.648Z,100772.41
2023-12-12T00:03:24.253Z,100775.31
2023-12-12T00:05:50.795Z,100767.25
2023-12-12T00:08:17.255Z,100774.50
2023-12-12T00:10:43.729Z,100779.28
2023-12-12T00:13:10.276Z,100772.03
2023-12-12T00:15:36.732Z,100767.69
2023-12-12T00:18:03.269Z,100781.13
2023-12-12T00:20:29.814Z,100780.31
2023-12-12T00:22:56.281Z,100780.53
2023-12-12T00:25:22.870Z,100773.47
2023-12-12T00:27:49.427Z,100776.56
2023-12-12T00:30:15.889Z,100784.03
2023-12-12T00:32:42.392Z,100777.00
2023-12-12T00:35:09.128Z,100780.53
2023-12-12T00:37:35.904Z,100783.44
2023-12-12T00:40:03.130Z,100783.63
2023-12-12T00:42:29.629Z,100778.69
2023-12-12T00:44:56.058Z,100787.78
2023-12-12T00:47:22.572Z,100785.94
2023-12-12T00:49:49.166Z,100788.00
2023-12-12T00:52:15.792Z,100788.19
2023-12-12T00:54:42.391Z,100782.19
2023-12-12T00:57:08.799Z,100786.13
2023-12-12T00:59:35.263Z,100783.03
2023-12-12T01:02:01.725Z,100785.31
2023-12-12T01:04:28.277Z,100783.06
2023-12-12T01:06:55.111Z,100781.38
2023-12-12T01:09:21.596Z,100774.97
2023-12-12T01:11:48.089Z,100785.31
2023-12-12T01:14:14.676Z,100782.44
2023-12-12T01:16:41.718Z,100778.47
2023-12-12T01:19:08.418Z,100777.44
2023-12-12T01:21:34.907Z,100786.34
2023-12-12T01:24:01.424Z,100784.47
2023-12-12T01:26:27.892Z,100783.66
2023-12-12T01:28:55.284Z,100783.63
2023-12-12T01:31:22.114Z,100777.41
2023-12-12T01:33:50.524Z,100791.66
2023-12-12T01:36:17.440Z,100784.63
2023-12-12T01:38:45.680Z,100782.97
2023-12-12T01:41:12.173Z,100777.34
2023-12-12T01:43:38.736Z,100778.97
2023-12-12T01:46:12.580Z,100776.91
2023-12-12T01:48:39.276Z,100777.69
2023-12-12T01:51:06.672Z,100766.91
2023-12-12T01:53:38.207Z,100767.72
2023-12-12T01:56:06.111Z,100768.53
2023-12-12T01:58:34.808Z,100763.75
2023-12-12T02:01:01.683Z,100767.84
2023-12-12T02:03:30.874Z,100765.97
2023-12-12T02:05:59.512Z,100762.88
2023-12-12T02:08:26.789Z,100761.78
2023-12-12T02:10:54.071Z,100758.69
2023-12-12T02:13:21.895Z,100746.69
2023-12-12T02:15:48.794Z,100755.97
2023-12-12T02:18:15.393Z,100743.16
2023-12-12T02:20:42.425Z,100741.06
2023-12-12T02:23:09.262Z,100745.16
2023-12-12T02:25:36.706Z,100744.53
2023-12-12T02:28:03.819Z,100752.38
2023-12-12T02:30:31.333Z,100755.81
2023-12-12T02:33:00.998Z,100748.31
2023-12-12T02:35:28.292Z,100752.41
2023-12-12T02:37:54.721Z,100754.47
2023-12-12T02:40:21.398Z,100766.81
2023-12-12T02:42:49.929Z,100762.69
2023-12-12T02:45:16.522Z,100756.47
2023-12-12T02:47:43.092Z,100759.16
2023-12-12T02:50:09.963Z,100763.03
2023-12-12T02:52:36.583Z,100755.41
2023-12-12T02:55:03.691Z,100764.25
2023-12-12T02:57:30.495Z,100762.81
2023-12-12T02:59:57.182Z,100751.66
2023-12-12T03:02:23.641Z,100753.50
2023-12-12T03:04:50.173Z,100744.81
2023-12-12T03:07:16.738Z,100750.56
2023-12-12T03:09:43.259Z,100748.91
2023-12-12T03:12:10.198Z,100754.25
2023-12-12T03:14:37.625Z,100747.25
2023-12-12T03:17:04.464Z,100745.59
2023-12-12T03:19:32.352Z,100743.53
2023-12-12T03:21:59.079Z,100738.56
2023-12-12T03:24:25.645Z,100738.75
2023-12-12T03:26:52.143Z,100744.53
2023-12-12T03:29:18.706Z,100741.00
2023-12-12T03:31:45.321Z,100741.22
2023-12-12T03:34:11.960Z,100730.06
2023-12-12T03:36:43.212Z,100738.09
2023-12-12T03:39:10.862Z,100721.34
2023-12-12T03:41:38.206Z,100726.91
2023-12-12T03:44:04.810Z,100719.06
2023-12-12T03:46:31.436Z,100722.78
2023-12-12T03:48:58.038Z,100725.66
2023-12-12T03:51:24.579Z,100720.88
2023-12-12T03:53:51.241Z,100713.59
2023-12-12T03:56:17.745Z,100716.94
2023-12-12T03:58:44.232Z,100727.81
2023-12-12T04:01:10.818Z,100724.84
2023-12-12T04:03:37.425Z,100724.06
2023-12-12T04:06:05.130Z,100718.72
2023-12-12T04:08:31.721Z,100721.38
2023-12-12T04:10:58.153Z,100715.25
2023-12-12T04:13:24.709Z,100721.06
2023-12-12T04:15:51.704Z,100719.47
2023-12-12T04:18:18.370Z,100718.03
2023-12-12T04:20:45.132Z,100712.94
2023-12-12T04:23:11.625Z,100707.19
2023-12-12T04:25:38.149Z,100713.81
2023-12-12T04:28:04.805Z,100710.53
2023-12-12T04:30:31.550Z,100702.28
2023-12-12T04:32:58.053Z,100702.75
2023-12-12T04:35:24.506Z,100700.50
2023-12-12T04:37:50.941Z,100703.81
2023-12-12T04:40:17.461Z,100701.75
2023-12-12T04:42:43.985Z,100701.38
2023-12-12T04:45:10.656Z,100698.69
2023-12-12T04:47:37.626Z,100698.69
2023-12-12T04:50:04.934Z,100696.63
2023-12-12T04:52:31.621Z,100704.31
2023-12-12T04:54:58.277Z,100702.88
2023-12-12T04:57:24.879Z,100696.09
2023-12-12T04:59:51.335Z,100697.75
2023-12-12T05:02:17.773Z,100687.66
2023-12-12T05:04:44.240Z,100686.81
2023-12-12T05:07:11.450Z,100687.66
2023-12-12T05:09:38.721Z,100674.22
2023-12-12T05:12:05.726Z,100672.59
2023-12-12T05:14:32.192Z,100670.94
2023-12-12T05:17:04.872Z,100672.16
2023-12-12T05:19:37.122Z,100677.72
2023-12-12T05:22:04.278Z,100677.50
2023-12-12T05:24:30.832Z,100667.13
2023-12-12T05:26:57.329Z,100661.16
2023-12-12T05:29:23.801Z,100658.25
2023-12-12T05:31:50.384Z,100649.56
2023-12-12T05:34:16.901Z,100658.63
2023-12-12T05:36:43.520Z,100656.34
2023-12-12T05:39:11.085Z,100659.03
2023-12-12T05:41:37.927Z,100649.97
2023-12-12T05:44:04.622Z,100653.47
2023-12-12T05:46:31.182Z,100644.22
2023-12-12T05:48:59.317Z,100645.88
2023-12-12T05:51:27.426Z,100642.16
2023-12-12T05:53:53.918Z,100646.81
2023-12-12T05:56:20.419Z,100643.81
2023-12-12T05:58:46.826Z,100651.03
2023-12-12T06:01:13.692Z,100648.81
2023-12-12T06:03:43.682Z,100643.25
2023-12-12T06:06:11.579Z,100641.63
2023-12-12T06:08:38.127Z,100650.47
2023-12-12T06:11:04.831Z,100651.50
2023-12-12T06:13:31.349Z,100657.69
2023-12-12T06:15:59.106Z,100644.91
2023-12-12T06:18:26.764Z,100646.81
2023-12-12T06:20:53.252Z,100645.38
2023-12-12T06:23:19.712Z,100654.31
2023-12-12T06:25:47.185Z,100645.66
2023-12-12T06:28:13.762Z,100643.00
2023-12-12T06:30:40.404Z,100644.28
2023-12-12T06:33:07.043Z,100645.53
2023-12-12T06:35:33.613Z,100630.69
2023-12-12T06:38:00.094Z,100633.81
2023-12-12T06:40:26.556Z,100629.91
2023-12-12T06:42:53.038Z,100624.97
2023-12-12T06:45:19.629Z,100624.16
2023-12-12T06:47:46.791Z,100624.56
2023-12-12T06:50:13.407Z,100617.97
2023-12-12T06:52:40.525Z,100606.84
2023-12-12T06:55:07.398Z,100606.47
2023-12-12T06:57:34.112Z,100607.72
2023-12-12T07:00:00.944Z,100601.94
2023-12-12T07:02:27.700Z,100598.63
2023-12-12T07:04:54.413Z,100592.06
2023-12-12T07:07:21.070Z,100593.72
2023-12-12T07:09:58.783Z,100592.47
2023-12-12T07:15:12.091Z,100594.53
2023-12-12T07:17:38.775Z,100594.34
2023-12-12T07:20:06.658Z,100598.69
2023-12-12T07:22:33.646Z,100589.59
2023-12-12T07:25:01.094Z,100596.19
2023-12-12T07:27:27.656Z,100580.53
2023-12-12T07:29:54.184Z,100585.50
2023-12-12T07:32:20.845Z,100581.34
2023-12-12T07:34:47.415Z,100570.22
2023-12-12T07:37:14.076Z,100579.72
2023-12-12T07:39:40.615Z,100581.81
2023-12-12T07:42:07.118Z,100583.03
2023-12-12T07:44:33.668Z,100575.59
2023-12-12T07:47:02.625Z,100568.78
2023-12-12T07:49:32.228Z,100571.91
2023-12-12T07:51:58.924Z,100566.94
2023-12-12T07:54:25.439Z,100567.13
2023-12-12T07:56:51.981Z,100555.34
2023-12-12T07:59:18.951Z,100559.31
2023-12-12T08:01:45.597Z,100559.69
2023-12-12T08:04:12.390Z,100559.09
2023-12-12T08:06:38.990Z,100558.69
2023-12-12T08:09:06.139Z,100553.91
2023-12-12T08:11:32.587Z,100546.28
2023-12-12T08:14:01.237Z,100545.03
2023-12-12T08:16:27.886Z,100539.69
2023-12-12T08:18:54.495Z,100534.91
2023-12-12T08:21:21.248Z,100535.09
2023-12-12T08:23:49.653Z,100529.31
2023-12-12T08:26:16.191Z,100525.56
2023-12-12T08:28:42.726Z,100528.91
2023-12-12T08:31:09.347Z,100528.47
2023-12-12T08:33:36.287Z,100523.09
2023-12-12T08:36:04.896Z,100516.06
2023-12-12T08:38:31.541Z,100510.28
2023-12-12T08:40:58.074Z,100512.75
2023-12-12T08:43:25.124Z,100503.03
2023-12-12T08:45:53.781Z,100501.78
2023-12-12T08:48:20.471Z,100500.31
2023-12-12T08:50:49.580Z,100498.25
2023-12-12T08:53:16.835Z,100497.41
2023-12-12T08:55:43.580Z,100491.16
2023-12-12T08:58:11.961Z,100496.13
2023-12-12T09:00:39.933Z,100494.69
2023-12-12T09:03:06.544Z,100488.25
2023-12-12T09:05:33.002Z,100484.53
2023-12-12T09:07:59.656Z,100485.13
2023-12-12T09:10:26.191Z,100482.00
2023-12-12T09:12:52.659Z,100474.53
2023-12-12T09:15:19.182Z,100468.94
2023-12-12T09:17:56.448Z,100461.31
2023-12-12T09:20:32.142Z,100459.59
2023-12-12T09:22:58.694Z,100460.00
2023-12-12T09:25:27.038Z,100448.78
2023-12-12T09:27:53.671Z,100443.84
2023-12-12T09:30:20.167Z,100453.72
2023-12-12T09:32:46.812Z,100451.19
2023-12-12T09:35:13.382Z,100450.56
2023-12-12T09:37:39.972Z,100451.16
2023-12-12T09:40:07.316Z,100434.56
2023-12-12T09:42:35.354Z,100440.56
2023-12-12T09:45:11.689Z,100445.06
2023-12-12T09:47:40.927Z,100432.47
2023-12-12T09:50:11.673Z,100427.06
2023-12-12T09:52:38.877Z,100427.47
2023-12-12T09:55:06.827Z,100421.25
2023-12-12T09:57:34.401Z,100418.72
2023-12-12T10:00:01.805Z,100407.72
2023-12-12T10:02:38.316Z,100400.47
2023-12-12T10:05:05.978Z,100393.81
2023-12-12T10:07:34.638Z,100385.75
2023-12-12T10:10:05.350Z,100383.44
2023-12-12T10:12:32.230Z,100384.66
2023-12-12T10:14:59.562Z,100378.59
2023-12-12T10:17:28.045Z,100373.34
2023-12-12T10:20:04.750Z,100369.19
2023-12-12T10:22:33.068Z,100358.44
2023-12-12T10:25:13.277Z,100355.28
2023-12-12T10:27:43.086Z,100350.50
2023-12-12T10:30:13.728Z,100356.47
2023-12-12T10:32:41.559Z,100352.50
2023-12-12T10:35:08.844Z,100350.81
2023-12-12T10:37:35.711Z,100341.22
2023-12-12T10:40:11.971Z,100338.66
2023-12-12T10:42:39.377Z,100327.44
2023-12-12T10:45:08.049Z,100329.47
2023-12-12T10:47:38.696Z,100334.41
2023-12-12T10:50:10.572Z,100323.16
2023-12-12T10:52:38.724Z,100313.22
2023-12-12T10:55:06.876Z,100310.66
2023-12-12T10:57:34.250Z,100302.38
2023-12-12T11:00:16.543Z,100310.22
2023-12-12T11:02:46.053Z,100298.97
2023-12-12T11:05:13.994Z,100291.03
2023-12-12T11:07:42.334Z,100278.97
2023-12-12T11:10:12.018Z,100283.69
2023-12-12T11:12:42.398Z,100275.72
2023-12-12T11:15:10.882Z,100277.97
2023-12-12T11:17:37.533Z,100268.34
2023-12-12T11:20:14.940Z,100263.13
2023-12-12T11:22:44.119Z,100254.91
2023-12-12T11:25:20.877Z,100256.28
2023-12-12T11:27:50.585Z,100247.59
2023-12-12T11:30:19.377Z,100247.25
2023-12-12T11:32:46.942Z,100245.84
2023-12-12T11:35:33.630Z,100237.91
2023-12-12T11:38:04.176Z,100236.94
2023-12-12T11:40:31.415Z,100223.56
2023-12-12T11:43:18.035Z,100223.56
2023-12-12T11:45:46.107Z,100217.47
2023-12-12T11:48:13.068Z,100202.78
2023-12-12T11:50:40.477Z,100199.50
2023-12-12T11:53:06.993Z,100196.06
2023-12-12T11:55:34.163Z,100185.38
2023-12-12T11:58:02.646Z,100186.09
2023-12-12T12:00:34.156Z,100186.75
2023-12-12T12:03:02.013Z,100175.84
2023-12-12T12:05:28.898Z,100169.69
2023-12-12T12:07:56.343Z,100172.13
2023-12-12T12:10:24.966Z,100165.63
2023-12-12T12:12:56.277Z,100155.88
2023-12-12T12:15:23.169Z,100164.22
2023-12-12T12:17:50.260Z,100157.25
2023-12-12T12:20:17.035Z,100157.25
2023-12-12T12:22:43.705Z,100148.66
2023-12-12T12:25:10.691Z,100141.69
2023-12-12T12:27:52.358Z,100136.28
2023-12-12T12:30:19.652Z,100126.66
2023-12-12T12:33:08.173Z,100116.16
2023-12-12T12:35:34.732Z,100122.97
2023-12-12T12:38:01.555Z,100119.84
2023-12-12T12:40:39.403Z,100123.22
2023-12-12T12:43:16.499Z,100117.81
2023-12-12T12:45:43.007Z,100108.47
2023-12-12T12:48:09.726Z,100106.69
2023-12-12T12:50:36.404Z,100100.78
2023-12-12T12:53:04.600Z,100081.28
2023-12-12T12:55:31.391Z,100079.63
2023-12-12T12:57:58.010Z,100078.25
2023-12-12T13:00:24.673Z,100078.25
2023-12-12T13:02:51.236Z,100080.13
2023-12-12T13:05:18.838Z,100077.31
2023-12-12T13:07:45.519Z,100066.69
2023-12-12T13:10:12.479Z,100062.44
2023-12-12T13:12:39.977Z,100058.97
2023-12-12T13:15:13.044Z,100053.41
2023-12-12T13:17:39.927Z,100063.06
2023-12-12T13:20:13.208Z,100060.59
2023-12-12T13:22:44.662Z,100056.50
2023-12-12T13:25:12.494Z,100048.66
2023-12-12T13:27:40.485Z,100049.13
2023-12-12T13:30:11.822Z,100054.53
2023-12-12T13:32:39.761Z,100040.09
2023-12-12T13:35:18.240Z,100039.53
2023-12-12T13:37:53.793Z,100018.66
2023-12-12T13:40:23.301Z,100012.13
2023-12-12T13:42:50.861Z,99998.03
2023-12-12T13:45:18.352Z,99997.22
2023-12-12T13:47:45.088Z,99997.69
2023-12-12T13:50:11.790Z,100001.94
2023-12-12T13:52:39.055Z,100013.00
2023-12-12T13:55:07.378Z,100025.69
2023-12-12T13:57:33.910Z,100027.56
2023-12-12T14:00:00.486Z,100031.06
2023-12-12T14:02:33.049Z,100010.53
2023-12-12T14:05:03.341Z,100020.75
2023-12-12T14:07:30.544Z,100019.13
2023-12-12T14:09:57.084Z,100009.97
2023-12-12T14:12:23.592Z,100019.94
2023-12-12T14:14:50.081Z,100006.69
2023-12-12T14:17:16.872Z,100005.50
2023-12-12T14:19:43.789Z,100004.69
2023-12-12T14:22:13.542Z,99990.63
2023-12-12T14:24:40.881Z,99986.59
2023-12-12T14:27:07.891Z,99986.38
2023-12-12T14:29:34.610Z,99980.50
2023-12-12T14:32:01.487Z,99980.25
2023-12-12T14:34:28.228Z,99965.69
2023-12-12T14:36:54.966Z,99963.00
2023-12-12T14:39:21.470Z,99962.16
2023-12-12T14:41:48.291Z,99958.66
2023-12-12T14:44:15.063Z,99954.31
2023-12-12T14:46:41.827Z,99961.34
2023-12-12T14:49:08.526Z,99940.25
2023-12-12T14:51:35.136Z,99948.56
2023-12-12T14:54:01.930Z,99942.84
2023-12-12T14:56:28.630Z,99944.97
2023-12-12T14:58:56.615Z,99936.28
2023-12-12T15:01:23.231Z,99937.59
2023-12-12T15:03:49.810Z,99929.25
2023-12-12T15:06:16.407Z,99930.31
2023-12-12T15:08:43.095Z,99926.81
2023-12-12T15:11:09.563Z,99924.91
2023-12-12T15:13:36.155Z,99927.38
2023-12-12T15:16:02.687Z,99917.16
2023-12-12T15:18:29.293Z,99914.19
2023-12-12T15:20:55.959Z,99917.47
2023-12-12T15:23:22.431Z,99906.66
2023-12-12T15:25:48.932Z,99907.47
2023-12-12T15:28:25.107Z,99907.25
2023-12-12T15:30:56.005Z,99898.09
2023-12-12T15:33:23.376Z,99894.56
2023-12-12T15:35:50.044Z,99897.84
2023-12-12T15:38:16.720Z,99888.94
2023-12-12T15:40:43.928Z,99886.25
2023-12-12T15:43:12.101Z,99889.50
2023-12-12T15:45:38.586Z,99874.13
2023-12-12T15:48:05.424Z,99872.81
2023-12-12T15:50:32.231Z,99873.63
2023-12-12T15:52:58.713Z,99873.38
2023-12-12T15:55:25.251Z,99871.00
2023-12-12T15:57:51.786Z,99870.75
2023-12-12T16:00:18.549Z,99858.88
2023-12-12T16:02:45.280Z,99867.56
2023-12-12T16:05:12.543Z,99854.06
2023-12-12T16:07:40.225Z,99856.25
2023-12-12T16:10:08.610Z,99849.22
2023-12-12T16:12:36.509Z,99856.25
2023-12-12T16:15:07.054Z,99850.63
2023-12-12T16:17:34.131Z,99853.06
2023-12-12T16:20:05.082Z,99846.59
2023-12-12T16:22:37.071Z,99842.81
2023-12-12T16:25:04.527Z,99829.31
2023-12-12T16:27:31.308Z,99829.31
2023-12-12T16:29:58.082Z,99820.41
2023-12-12T16:32:24.716Z,99828.25
2023-12-12T16:34:52.722Z,99822.03
2023-12-12T16:37:19.974Z,99814.19
2023-12-12T16:39:46.557Z,99805.00
2023-12-12T16:42:17.017Z,99814.75
2023-12-12T16:44:43.536Z,99819.06
2023-12-12T16:47:12.733Z,99815.56
2023-12-12T16:49:39.476Z,99811.78
2023-12-12T16:52:06.190Z,99820.72
2023-12-12T16:54:32.753Z,99820.97
2023-12-12T16:56:59.663Z,99821.22
2023-12-12T16:59:27.687Z,99813.38
2023-12-12T17:01:56.957Z,99815.00
2023-12-12T17:04:27.894Z,99809.03
2023-12-12T17:06:55.242Z,99811.97
2023-12-12T17:09:21.777Z,99803.88
2023-12-12T17:11:48.772Z,99800.66
2023-12-12T17:14:15.296Z,99800.66
2023-12-12T17:16:44.594Z,99801.50
2023-12-12T17:19:11.377Z,99789.63
2023-12-12T17:21:37.971Z,99790.44
2023-12-12T17:24:04.613Z,99790.44
2023-12-12T17:26:31.135Z,99791.69
2023-12-12T17:28:58.182Z,99796.19
2023-12-12T17:31:24.742Z,99796.19
2023-12-12T17:33:51.345Z,99795.69
2023-12-12T17:36:17.874Z,99799.44
2023-12-12T17:38:44.394Z,99797.34
2023-12-12T17:41:17.475Z,99801.69
2023-12-12T17:43:45.068Z,99800.59
2023-12-12T17:46:12.009Z,99793.31
2023-12-12T17:48:40.674Z,99793.31
2023-12-12T17:51:07.564Z,99784.41
2023-12-12T17:53:33.966Z,99776.56
2023-12-12T17:56:02.083Z,99773.03
2023-12-12T17:58:28.744Z,99775.41
2023-12-12T18:00:55.412Z,99777.53
2023-12-12T18:03:21.953Z,99771.81
2023-12-12T18:05:50.533Z,99762.84
2023-12-12T18:08:17.097Z,99770.03
2023-12-12T18:10:43.653Z,99766.19
2023-12-12T18:13:10.196Z,99758.59
2023-12-12T18:15:36.853Z,99750.41
2023-12-12T18:18:03.468Z,99744.38
2023-12-12T18:20:30.189Z,99756.75
2023-12-12T18:22:58.358Z,99748.31
2023-12-12T18:25:25.652Z,99746.34
2023-12-12T18:27:52.825Z,99758.44
2023-12-12T18:30:26.064Z,99739.25
2023-12-12T18:32:53.011Z,99738.56
2023-12-12T18:35:20.577Z,99747.16
2023-12-12T18:37:47.062Z,99738.44
2023-12-12T18:40:17.976Z,99736.69
2023-12-12T18:42:44.791Z,99737.19
2023-12-12T18:45:12.682Z,99728.53
2023-12-12T18:47:39.606Z,99729.59
2023-12-12T18:50:07.915Z,99730.91
2023-12-12T18:52:34.521Z,99724.13
2023-12-12T18:55:01.248Z,99720.63
2023-12-12T18:57:28.643Z,99719.19
2023-12-12T18:59:55.254Z,99716.97
2023-12-12T19:02:22.846Z,99706.94
2023-12-12T19:04:49.568Z,99700.41
2023-12-12T19:07:16.343Z,99698.41
2023-12-12T19:09:43.491Z,99703.47
2023-12-12T19:12:10.364Z,99696.13
2023-12-12T19:14:36.950Z,99689.34
2023-12-12T19:17:03.773Z,99694.63
2023-12-12T19:19:33.199Z,99689.97
2023-12-12T19:22:01.185Z,99679.69
2023-12-12T19:24:28.753Z,99684.25
2023-12-12T19:26:55.245Z,99686.13
2023-12-12T19:29:23.106Z,99688.84
2023-12-12T19:31:49.751Z,99700.69
2023-12-12T19:34:16.482Z,99689.41
2023-12-12T19:36:47.423Z,99681.91
2023-12-12T19:39:15.147Z,99674.38
2023-12-12T19:41:44.605Z,99662.28
2023-12-12T19:44:12.257Z,99655.88
2023-12-12T19:46:38.832Z,99659.94
2023-12-12T19:49:05.475Z,99663.22
2023-12-12T19:51:32.008Z,99665.91
2023-12-12T19:53:58.726Z,99670.81
2023-12-12T19:56:25.242Z,99667.13
2023-12-12T19:58:52.495Z,99673.09
2023-12-12T20:01:19.185Z,99670.97
2023-12-12T20:03:46.271Z,99656.44
2023-12-12T20:06:13.538Z,99662.66
2023-12-12T20:08:39.967Z,99676.94
2023-12-12T20:11:07.049Z,99678.56
2023-12-12T20:13:34.001Z,99675.88
2023-12-12T20:16:00.578Z,99688.28
2023-12-12T20:18:27.373Z,99690.50
2023-12-12T20:20:53.951Z,99692.69
2023-12-12T20:23:22.168Z,99693.50
2023-12-12T20:25:48.736Z,99696.00
2023-12-12T20:28:15.258Z,99694.13
2023-12-12T20:30:42.116Z,99687.44
2023-12-12T20:33:09.233Z,99686.94
2023-12-12T20:35:35.953Z,99680.50
2023-12-12T20:38:02.460Z,99680.50
2023-12-12T20:40:29.020Z,99675.09
2023-12-12T20:42:55.510Z,99680.25
2023-12-12T20:45:22.021Z,99680.50
2023-12-12T20:47:48.558Z,99680.50
2023-12-12T20:50:15.189Z,99664.31
2023-12-12T20:52:41.707Z,99660.22
2023-12-12T20:55:10.610Z,99664.81
2023-12-12T20:57:37.106Z,99651.78
2023-12-12T21:00:07.295Z,99660.72
2023-12-12T21:02:33.899Z,99664.44
2023-12-12T21:05:00.523Z,99671.94
2023-12-12T21:07:27.078Z,99672.19
2023-12-12T21:09:53.552Z,99671.63
2023-12-12T21:12:20.027Z,99676.44
2023-12-12T21:14:46.478Z,99677.50
2023-12-12T21:17:12.947Z,99674.25
2023-12-12T21:19:39.945Z,99671.78
2023-12-12T21:22:06.535Z,99673.94
2023-12-12T21:24:33.076Z,99669.00
2023-12-12T21:27:00.829Z,99673.00
2023-12-12T21:29:27.295Z,99672.44
2023-12-12T21:31:53.883Z,99668.09
2023-12-12T21:34:20.513Z,99679.63
2023-12-12T21:36:47.159Z,99669.09
2023-12-12T21:39:13.649Z,99673.88
2023-12-12T21:41:40.842Z,99670.88
2023-12-12T21:44:07.306Z,99672.16
2023-12-12T21:46:33.827Z,99670.78
2023-12-12T21:49:00.464Z,99673.72
2023-12-12T21:51:26.995Z,99670.47
2023-12-12T21:53:54.045Z,99661.81
2023-12-12T21:56:22.307Z,99668.47
2023-12-12T21:58:55.089Z,99671.41
2023-12-12T22:01:23.533Z,99674.09
2023-12-12T22:03:50.100Z,99675.16
2023-12-12T22:06:16.668Z,99673.53
2023-12-12T22:08:43.138Z,99681.03
2023-12-12T22:11:20.262Z,99678.34
2023-12-12T22:13:48.116Z,99682.09
2023-12-12T22:16:32.624Z,99677.78
2023-12-12T22:19:01.190Z,99675.34
2023-12-12T22:21:29.870Z,99669.13
2023-12-12T22:23:56.415Z,99667.50
2023-12-12T22:26:22.943Z,99671.25
2023-12-12T22:28:49.496Z,99673.38
2023-12-12T22:31:16.022Z,99667.97
2023-12-12T22:33:42.555Z,99674.41
2023-12-12T22:36:19.022Z,99667.63
2023-12-12T22:38:46.756Z,99663.53
2023-12-12T22:41:13.506Z,99671.63
2023-12-12T22:43:40.723Z,99660.28
2023-12-12T22:46:10.562Z,99679.13
2023-12-12T22:48:37.934Z,99679.13
2023-12-12T22:51:05.596Z,99679.38
2023-12-12T22:53:32.082Z,99678.56
2023-12-12T22:55:58.713Z,99670.47
2023-12-12T22:58:28.392Z,99673.16
2023-12-12T23:00:54.964Z,99673.16
2023-12-12T23:03:21.714Z,99664.53
2023-12-12T23:05:48.531Z,99667.69
2023-12-12T23:08:15.010Z,99669.56
2023-12-12T23:10:42.209Z,99664.19
2023-12-12T23:13:08.871Z,99666.53
2023-12-12T23:15:35.525Z,99667.59
2023-12-12T23:18:02.154Z,99663.25
2023-12-12T23:20:28.874Z,99666.44
2023-12-12T23:22:55.433Z,99666.69
2023-12-12T23:25:21.925Z,99663.41
2023-12-12T23:27:48.462Z,99653.94
2023-12-12T23:30:15.473Z,99662.84
2023-12-12T23:32:43.170Z,99657.69
2023-12-12T23:35:09.905Z,99651.25
2023-12-12T23:37:36.712Z,99644.81
2023-12-12T23:40:05.994Z,99644.00
2023-12-12T23:42:32.862Z,99648.06
2023-12-12T23:45:05.057Z,99638.34
2023-12-12T23:47:33.188Z,99624.91
2023-12-12T23:50:01.024Z,99622.44
2023-12-12T23:52:27.853Z,99627.03
2023-12-12T23:54:54.350Z,99622.69
2023-12-12T23:57:21.864Z,99615.44
2023-12-12T23:59:48.370Z,99617.31
